Time;durP1;ratioP1;P1;durP2;ratioP2;P2;SDS_P1;SDS_P2;PMS_P1;PMS_P2;Temp;Humidity;BMP_temperature;BMP_pressure;BME280_temperature;BME280_humidity;BME280_pressure;Samples;Min_cycle;Max_cycle;Signal;HPM_P1;HPM_P2
2023/09/28 00:01:17;;;;;;;15.48;6.93;;;22.40;93.70;;;;;;7383263;19;20022;-76
2023/09/28 00:03:44;;;;;;;19.35;6.85;;;22.40;93.70;;;;;;7382426;19;20003;-76
2023/09/28 00:06:13;;;;;;;20.27;7.13;;;22.30;93.50;;;;;;7404896;19;20010;-77
2023/09/28 00:08:42;;;;;;;17.13;6.63;;;22.30;93.50;;;;;;7382372;19;20003;-76
2023/09/28 00:11:11;;;;;;;19.30;7.20;;;22.20;93.50;;;;;;7382692;19;20010;-76
2023/09/28 00:13:37;;;;;;;16.42;6.85;;;22.20;93.60;;;;;;7385637;19;20007;-76
2023/09/28 00:16:07;;;;;;;22.88;7.20;;;22.10;93.60;;;;;;7382560;19;20010;-77
2023/09/28 00:18:33;;;;;;;29.45;8.20;;;22.10;93.80;;;;;;7382770;19;20031;-76
2023/09/28 00:21:32;;;;;;;17.85;6.28;;;22.00;93.80;;;;;;7400586;19;20044;-76
2023/09/28 00:24:02;;;;;;;12.82;6.38;;;22.00;93.90;;;;;;7384819;19;20006;-76
2023/09/28 00:26:31;;;;;;;17.40;6.82;;;22.00;93.90;;;;;;7381774;19;20369;-76
2023/09/28 00:28:57;;;;;;;19.27;6.88;;;22.00;93.80;;;;;;7382016;19;20024;-76
2023/09/28 00:31:26;;;;;;;17.05;6.53;;;22.00;94.20;;;;;;7382742;19;20010;-77
2023/09/28 00:33:52;;;;;;;15.90;6.85;;;22.00;93.80;;;;;;7380921;19;19999;-76
2023/09/28 00:36:21;;;;;;;16.58;7.03;;;22.00;93.70;;;;;;7403466;19;20284;-76
2023/09/28 00:38:48;;;;;;;19.33;7.03;;;22.10;93.60;;;;;;7381380;19;20007;-77
2023/09/28 00:41:19;;;;;;;16.48;6.38;;;22.10;93.60;;;;;;7381550;19;20047;-77
2023/09/28 00:43:45;;;;;;;;;;;22.10;93.60;;;;;;7382467;19;20006;-78
2023/09/28 00:46:17;;;;;;;16.42;6.32;;;22.20;93.70;;;;;;7379913;19;19928;-77
2023/09/28 00:48:57;;;;;;;16.75;5.47;;;22.20;93.50;;;;;;7382264;19;20013;-77
2023/09/28 00:51:27;;;;;;;17.17;5.82;;;22.20;93.50;;;;;;7388893;19;20112;-77
2023/09/28 00:53:55;;;;;;;12.65;6.07;;;22.30;93.50;;;;;;7403352;19;20002;-77
2023/09/28 00:56:27;;;;;;;14.95;6.25;;;22.30;93.50;;;;;;7381020;19;20006;-77
2023/09/28 00:58:56;;;;;;;16.65;6.32;;;22.30;93.50;;;;;;7381436;19;20006;-77
2023/09/28 01:01:29;;;;;;;24.02;6.68;;;22.30;93.50;;;;;;7381286;19;20002;-76
2023/09/28 01:03:56;;;;;;;18.35;6.93;;;22.30;93.50;;;;;;7380297;19;20247;-76
2023/09/28 01:06:25;;;;;;;14.55;6.13;;;22.30;93.50;;;;;;7402419;19;20382;-76
2023/09/28 01:08:52;;;;;;;12.10;6.22;;;22.30;93.50;;;;;;7380340;19;20676;-76
2023/09/28 01:11:22;;;;;;;11.10;6.30;;;22.30;93.80;;;;;;7380637;19;20014;-76
2023/09/28 01:13:52;;;;;;;20.77;6.10;;;22.40;93.40;;;;;;7380447;19;20013;-76
2023/09/28 01:16:21;;;;;;;13.73;6.00;;;22.30;93.30;;;;;;7380815;19;20433;-76
2023/09/28 01:18:50;;;;;;;13.35;6.40;;;22.30;93.30;;;;;;7380905;19;20007;-77
2023/09/28 01:21:16;;;;;;;15.52;5.75;;;22.30;93.30;;;;;;7402595;19;20066;-76
2023/09/28 01:23:47;;;;;;;12.80;6.55;;;22.30;93.30;;;;;;7378711;19;20011;-76
2023/09/28 01:26:13;;;;;;;;;;;22.20;93.30;;;;;;7380515;19;20219;-75
2023/09/28 01:28:42;;;;;;;12.90;5.75;;;22.20;93.30;;;;;;7380190;19;19932;-76
2023/09/28 01:31:08;;;;;;;19.80;6.35;;;22.20;93.30;;;;;;7380492;19;20019;-76
2023/09/28 01:33:37;;;;;;;13.45;6.20;;;22.20;93.40;;;;;;7378984;19;20075;-76
2023/09/28 01:36:04;;;;;;;13.75;5.82;;;22.10;93.40;;;;;;7401619;19;20009;-76
2023/09/28 01:38:37;;;;;;;15.40;6.35;;;22.10;93.50;;;;;;7379076;19;20017;-75
2023/09/28 01:41:06;;;;;;;15.40;6.43;;;22.10;93.60;;;;;;7379779;19;20561;-76
2023/09/28 01:43:36;;;;;;;14.05;6.35;;;22.10;93.90;;;;;;7378188;19;20070;-76
2023/09/28 01:46:02;;;;;;;14.48;5.82;;;22.00;93.60;;;;;;7379981;19;20043;-76
2023/09/28 01:48:31;;;;;;;13.68;5.72;;;22.00;93.60;;;;;;7379871;19;20011;-76
2023/09/28 01:50:58;;;;;;;13.50;6.13;;;22.00;93.60;;;;;;7400782;19;20070;-75
2023/09/28 01:53:26;;;;;;;14.85;6.38;;;22.00;94.00;;;;;;7379106;19;20011;-75
2023/09/28 01:55:52;;;;;;;12.55;6.00;;;21.90;93.60;;;;;;7379263;19;20496;-75
2023/09/28 01:58:23;;;;;;;11.40;6.13;;;21.90;93.70;;;;;;7378933;19;20021;-75
2023/09/28 02:00:49;;;;;;;;;;;21.90;93.70;;;;;;7379701;19;20016;-76
2023/09/28 02:03:18;;;;;;;14.63;5.53;;;21.90;93.70;;;;;;7399997;19;19934;-75
2023/09/28 02:05:44;;;;;;;18.17;6.07;;;21.90;93.60;;;;;;7378759;19;20351;-76
2023/09/28 02:08:13;;;;;;;10.23;5.43;;;21.90;93.60;;;;;;7378619;19;20010;-76
2023/09/28 02:10:40;;;;;;;11.95;5.13;;;21.90;93.60;;;;;;7379317;19;20003;-76
2023/09/28 02:13:09;;;;;;;14.27;6.03;;;22.00;93.60;;;;;;7377851;19;20289;-77
2023/09/28 02:15:37;;;;;;;13.15;5.60;;;22.00;93.60;;;;;;7381357;19;20010;-77
2023/09/28 02:18:07;;;;;;;14.32;5.68;;;22.00;93.60;;;;;;7400568;19;20038;-77
2023/09/28 02:20:34;;;;;;;13.57;5.93;;;22.00;93.60;;;;;;7378497;19;20308;-76
2023/09/28 02:23:03;;;;;;;12.52;5.00;;;22.00;93.60;;;;;;7378219;19;20021;-76
2023/09/28 02:25:30;;;;;;;13.90;5.05;;;22.00;93.50;;;;;;7377910;19;20010;-76
2023/09/28 02:27:58;;;;;;;14.75;5.85;;;22.00;93.50;;;;;;7378660;19;20026;-76
2023/09/28 02:30:25;;;;;;;16.25;5.55;;;22.00;93.60;;;;;;7378777;19;20007;-76
2023/09/28 02:32:57;;;;;;;16.83;5.05;;;22.00;93.60;;;;;;7398418;19;20010;-77
2023/09/28 02:35:24;;;;;;;14.77;5.43;;;22.00;93.60;;;;;;7378024;19;20011;-77
2023/09/28 02:37:53;;;;;;;16.10;6.18;;;22.00;93.60;;;;;;7377828;19;20007;-76
2023/09/28 02:40:19;;;;;;;18.45;5.55;;;22.00;93.60;;;;;;7378549;19;20011;-76
2023/09/28 02:42:50;;;;;;;10.05;5.05;;;22.00;93.60;;;;;;7378266;19;20011;-76
2023/09/28 02:45:16;;;;;;;9.75;5.50;;;22.00;93.60;;;;;;7400552;19;20011;-76
2023/09/28 02:47:46;;;;;;;14.20;5.43;;;22.00;93.70;;;;;;7377621;19;20259;-76
2023/09/28 02:50:16;;;;;;;22.30;5.95;;;22.00;93.70;;;;;;7377708;19;20011;-76
2023/09/28 02:52:46;;;;;;;13.95;4.70;;;22.00;93.80;;;;;;7378013;19;20014;-76
2023/09/28 02:55:13;;;;;;;13.43;5.38;;;21.90;93.80;;;;;;7378365;19;20050;-76
2023/09/28 02:57:42;;;;;;;13.57;5.32;;;21.90;93.80;;;;;;7378217;19;20014;-76
2023/09/28 03:00:17;;;;;;;15.10;5.25;;;21.90;93.80;;;;;;7400079;19;20015;-76
2023/09/28 03:02:46;;;;;;;10.35;4.78;;;21.90;93.80;;;;;;7377384;19;20011;-75
2023/09/28 03:05:16;;;;;;;11.85;4.88;;;21.80;93.90;;;;;;7376976;19;20014;-76
2023/09/28 03:07:45;;;;;;;12.63;5.57;;;21.80;94.30;;;;;;7377970;19;20017;-75
2023/09/28 03:10:12;;;;;;;13.07;4.97;;;21.80;94.00;;;;;;7382616;19;20003;-76
2023/09/28 03:12:42;;;;;;;12.73;5.15;;;21.80;93.90;;;;;;7388107;19;20254;-76
2023/09/28 03:15:10;;;;;;;14.93;5.65;;;21.80;93.90;;;;;;7406590;19;20015;-76
2023/09/28 03:17:39;;;;;;;12.40;4.82;;;21.80;94.00;;;;;;7383971;19;20031;-76
2023/09/28 03:20:09;;;;;;;14.25;4.90;;;21.80;94.00;;;;;;7384499;19;19998;-77
2023/09/28 03:22:41;;;;;;;12.60;5.27;;;21.80;93.90;;;;;;7384868;19;20070;-77
2023/09/28 03:25:11;;;;;;;11.05;4.97;;;21.80;93.90;;;;;;7382600;19;20263;-77
2023/09/28 03:27:39;;;;;;;16.08;5.55;;;21.80;94.00;;;;;;7384008;19;20353;-76
2023/09/28 03:30:10;;;;;;;13.70;5.15;;;21.80;94.00;;;;;;7405517;19;20243;-76
2023/09/28 03:32:40;;;;;;;11.13;4.28;;;21.80;94.00;;;;;;7382712;19;20003;-76
2023/09/28 03:35:10;;;;;;;15.00;5.18;;;21.80;93.90;;;;;;7383528;19;20058;-77
2023/09/28 03:37:42;;;;;;;12.57;5.20;;;21.80;93.90;;;;;;7388454;19;20003;-77
2023/09/28 03:40:12;;;;;;;18.35;5.00;;;21.80;93.90;;;;;;7384372;19;20006;-76
2023/09/28 03:42:41;;;;;;;12.65;4.70;;;21.80;93.90;;;;;;7384211;19;20027;-76
2023/09/28 03:45:13;;;;;;;15.43;5.13;;;21.80;94.00;;;;;;7402571;19;20019;-76
2023/09/28 03:47:44;;;;;;;11.77;5.10;;;21.80;93.90;;;;;;7383149;19;20002;-76
2023/09/28 03:50:14;;;;;;;11.87;5.33;;;21.80;93.90;;;;;;7383505;19;20076;-76
2023/09/28 03:52:46;;;;;;;8.00;4.80;;;21.80;94.00;;;;;;7383587;19;20369;-76
2023/09/28 03:55:16;;;;;;;14.65;5.28;;;21.80;94.00;;;;;;7383645;19;20235;-76
2023/09/28 03:57:45;;;;;;;11.20;4.47;;;21.70;94.10;;;;;;7383493;19;21336;-76
2023/09/28 04:00:15;;;;;;;22.52;5.20;;;21.70;94.10;;;;;;7404459;19;20011;-77
2023/09/28 04:02:45;;;;;;;25.93;5.33;;;21.70;94.20;;;;;;7382565;19;20014;-76
2023/09/28 04:05:14;;;;;;;13.65;4.90;;;21.80;94.30;;;;;;7382426;19;20475;-76
2023/09/28 04:07:46;;;;;;;15.13;5.32;;;21.80;94.20;;;;;;7384970;19;20019;-76
2023/09/28 04:10:14;;;;;;;13.27;4.80;;;21.80;94.20;;;;;;7383550;19;20027;-76
2023/09/28 04:12:43;;;;;;;18.10;4.82;;;21.80;94.00;;;;;;7382907;19;20041;-77
2023/09/28 04:15:12;;;;;;;23.20;5.93;;;21.80;94.00;;;;;;7405323;19;20066;-77
2023/09/28 04:17:40;;;;;;;18.60;5.18;;;21.80;94.00;;;;;;7382217;19;20027;-77
2023/09/28 04:20:11;;;;;;;13.60;5.45;;;21.80;94.30;;;;;;7382464;19;20015;-76
2023/09/28 04:22:39;;;;;;;16.25;5.40;;;21.70;94.40;;;;;;7383030;19;20025;-77
2023/09/28 04:25:12;;;;;;;14.98;4.63;;;21.60;94.10;;;;;;7382202;19;20047;-76
2023/09/28 04:27:41;;;;;;;23.45;4.45;;;21.50;93.80;;;;;;7382707;19;20370;-76
2023/09/28 04:30:11;;;;;;;14.55;4.75;;;21.40;93.40;;;;;;7403732;19;20582;-76
2023/09/28 04:32:40;;;;;;;20.60;4.18;;;21.50;93.40;;;;;;7380948;19;20017;-76
2023/09/28 04:35:10;;;;;;;18.77;4.45;;;21.50;93.20;;;;;;7381778;19;20006;-76
2023/09/28 04:37:39;;;;;;;18.25;4.68;;;21.50;93.00;;;;;;7382128;19;20030;-76
2023/09/28 04:40:13;;;;;;;14.57;4.32;;;21.50;92.40;;;;;;7381873;19;20299;-76
2023/09/28 04:42:42;;;;;;;19.52;4.15;;;21.40;92.30;;;;;;7382520;19;20011;-76
2023/09/28 04:45:11;;;;;;;21.65;4.60;;;21.40;92.20;;;;;;7401742;19;20014;-76
2023/09/28 04:47:42;;;;;;;21.27;4.13;;;21.40;92.10;;;;;;7381227;19;20011;-76
2023/09/28 04:50:12;;;;;;;22.00;4.47;;;21.40;92.10;;;;;;7381852;19;20006;-76
2023/09/28 04:52:43;;;;;;;18.92;4.40;;;21.40;91.90;;;;;;7381457;19;20594;-75
2023/09/28 04:55:14;;;;;;;21.63;4.00;;;21.40;91.40;;;;;;7381620;19;20771;-76
2023/09/28 04:57:43;;;;;;;;;;;21.40;91.40;;;;;;7382748;19;20341;-76
2023/09/28 05:00:16;;;;;;;22.95;4.00;;;21.40;91.10;;;;;;7402846;19;19924;-76
2023/09/28 05:02:45;;;;;;;23.50;3.53;;;21.30;90.80;;;;;;7380607;19;20070;-76
2023/09/28 05:05:15;;;;;;;25.88;4.22;;;21.20;90.70;;;;;;7379668;19;20258;-76
2023/09/28 05:07:43;;;;;;;19.23;3.55;;;21.20;90.60;;;;;;7380928;19;20003;-75
2023/09/28 05:10:16;;;;;;;25.10;4.22;;;21.20;90.60;;;;;;7379696;19;20069;-75
2023/09/28 05:12:44;;;;;;;18.85;3.65;;;21.20;90.50;;;;;;7381303;19;20098;-75
2023/09/28 05:15:15;;;;;;;27.80;4.15;;;21.10;90.50;;;;;;7402593;19;20059;-76
2023/09/28 05:17:44;;;;;;;27.27;4.20;;;21.10;90.50;;;;;;7380376;19;20005;-76
2023/09/28 05:20:14;;;;;;;21.48;4.15;;;21.20;90.60;;;;;;7381059;19;20007;-75
2023/09/28 05:22:43;;;;;;;18.73;3.42;;;21.10;90.60;;;;;;7380787;19;20074;-75
2023/09/28 05:25:14;;;;;;;28.55;4.38;;;21.20;90.50;;;;;;7379466;19;20002;-76
2023/09/28 05:27:43;;;;;;;;;;;21.20;90.20;;;;;;7381529;19;20011;-76
2023/09/28 05:30:13;;;;;;;19.02;3.45;;;21.20;90.20;;;;;;7401653;19;19927;-76
2023/09/28 05:32:42;;;;;;;25.20;3.55;;;21.20;90.50;;;;;;7377592;19;20011;-76
2023/09/28 05:35:11;;;;;;;24.02;4.53;;;21.30;90.80;;;;;;7379639;19;20385;-77
2023/09/28 05:37:40;;;;;;;19.70;3.97;;;21.30;91.00;;;;;;7380325;19;20010;-76
2023/09/28 05:40:10;;;;;;;22.65;4.10;;;21.40;91.10;;;;;;7380260;19;20011;-76
2023/09/28 05:42:41;;;;;;;18.80;3.70;;;21.40;91.10;;;;;;7380235;19;20011;-75
2023/09/28 05:45:10;;;;;;;;;;;21.40;91.00;;;;;;7400991;19;20059;-76
2023/09/28 05:47:39;;;;;;;31.90;4.32;;;21.40;90.90;;;;;;7379196;19;19918;-76
2023/09/28 05:50:10;;;;;;;32.05;4.22;;;21.40;91.10;;;;;;7379211;19;20271;-76
2023/09/28 05:52:39;;;;;;;20.60;4.25;;;21.40;90.60;;;;;;7379867;19;20002;-76
2023/09/28 05:55:09;;;;;;;24.20;4.10;;;21.40;90.70;;;;;;7379704;19;20007;-77
2023/09/28 05:57:40;;;;;;;17.60;4.40;;;21.40;90.90;;;;;;7379705;19;20006;-76
2023/09/28 06:00:10;;;;;;;;;;;21.30;91.00;;;;;;7401187;19;20389;-77
2023/09/28 06:02:38;;;;;;;21.83;4.22;;;21.30;91.00;;;;;;7379007;19;19915;-76
2023/09/28 06:05:09;;;;;;;32.20;4.82;;;21.30;91.00;;;;;;7378275;19;20014;-77
2023/09/28 06:07:38;;;;;;;27.30;4.30;;;21.20;91.00;;;;;;7380081;19;19998;-77
2023/09/28 06:10:09;;;;;;;14.65;3.17;;;21.20;91.00;;;;;;7379422;19;20006;-76
2023/09/28 06:12:40;;;;;;;28.20;4.35;;;21.10;91.00;;;;;;7379950;19;20021;-77
2023/09/28 06:15:10;;;;;;;18.55;3.28;;;21.10;90.90;;;;;;7400286;19;20031;-76
2023/09/28 06:17:39;;;;;;;27.35;4.38;;;21.10;90.90;;;;;;7378471;19;20032;-77
2023/09/28 06:20:10;;;;;;;23.73;3.50;;;21.10;90.90;;;;;;7378895;19;20010;-77
2023/09/28 06:22:40;;;;;;;24.20;4.70;;;21.10;90.70;;;;;;7379135;19;20027;-77
2023/09/28 06:25:11;;;;;;;23.95;4.63;;;21.20;90.80;;;;;;7378359;19;20683;-77
2023/09/28 06:27:42;;;;;;;;;;;21.10;90.60;;;;;;7380186;19;20011;-76
2023/09/28 06:30:12;;;;;;;22.73;4.00;;;21.10;90.50;;;;;;7400865;19;19918;-77
2023/09/28 06:32:41;;;;;;;25.67;4.82;;;21.10;90.60;;;;;;7377450;19;20024;-76
2023/09/28 06:35:11;;;;;;;34.45;4.75;;;21.10;90.70;;;;;;7378400;19;20030;-76
2023/09/28 06:37:40;;;;;;;27.47;4.37;;;21.00;90.60;;;;;;7378551;19;20438;-76
2023/09/28 06:40:10;;;;;;;25.55;4.28;;;20.90;90.50;;;;;;7378048;19;20245;-76
2023/09/28 06:42:41;;;;;;;24.98;4.28;;;20.80;90.50;;;;;;7378173;19;20014;-75
2023/09/28 06:45:11;;;;;;;22.08;3.60;;;20.70;90.70;;;;;;7402450;19;20062;-77
2023/09/28 06:47:40;;;;;;;31.90;4.47;;;20.60;90.80;;;;;;7384959;19;20024;-75
2023/09/28 06:50:10;;;;;;;27.40;4.32;;;20.70;90.90;;;;;;7385175;19;20688;-76
2023/09/28 06:52:39;;;;;;;19.95;4.43;;;20.70;90.90;;;;;;7385852;19;20009;-76
2023/09/28 06:55:09;;;;;;;24.15;3.95;;;20.60;90.80;;;;;;7385262;19;20002;-76
2023/09/28 06:57:38;;;;;;;22.15;4.03;;;20.70;90.90;;;;;;7384794;19;20011;-76
2023/09/28 07:00:16;;;;;;;20.83;3.80;;;20.70;91.00;;;;;;7408256;19;20017;-76
2023/09/28 07:02:47;;;;;;;23.65;4.18;;;20.70;90.90;;;;;;7384754;19;20066;-76
2023/09/28 07:05:16;;;;;;;24.93;3.73;;;20.70;90.80;;;;;;7384549;19;20023;-77
2023/09/28 07:07:45;;;;;;;26.02;3.72;;;20.80;90.90;;;;;;7385482;19;20358;-75
2023/09/28 07:10:14;;;;;;;23.67;4.45;;;20.80;90.70;;;;;;7386092;19;20006;-75
2023/09/28 07:12:44;;;;;;;33.03;8.18;;;20.80;90.80;;;;;;7386024;19;20094;-79
2023/09/28 07:15:16;;;;;;;44.83;15.98;;;20.80;90.70;;;;;;7407091;19;20015;-78
2023/09/28 07:57:58;;;;;;;28.83;3.90;;;21.30;89.70;;;;;;7425236;19;20029;-83
2023/09/28 08:07:08;;;;;;;34.70;4.22;;;21.20;86.00;;;;;;7444975;19;20010;-87
2023/09/28 08:13:15;;;;;;;38.38;4.90;;;21.20;85.70;;;;;;7443306;19;20022;-85
2023/09/28 08:15:44;;;;;;;39.08;4.88;;;21.30;85.80;;;;;;7416192;19;20006;-75
2023/09/28 08:18:34;;;;;;;29.30;6.55;;;21.40;86.00;;;;;;7436440;19;20013;-83
2023/09/28 08:21:40;;;;;;;30.15;6.90;;;21.40;85.00;;;;;;7421828;19;20035;-85
2023/09/28 08:27:05;;;;;;;24.80;4.47;;;21.20;84.90;;;;;;7439935;19;20573;-81
2023/09/28 08:32:56;;;;;;;42.40;7.03;;;21.30;85.70;;;;;;7443818;19;19979;-81
2023/09/28 08:35:26;;;;;;;30.80;5.38;;;21.30;85.90;;;;;;7337587;19;20871;-79
2023/09/28 08:47:51;;;;;;;36.85;4.70;;;21.70;85.50;;;;;;7407637;19;20031;-87
2023/09/28 08:50:30;;;;;;;22.10;4.22;;;21.80;85.20;;;;;;7389811;19;20003;-80
2023/09/28 08:53:15;;;;;;;24.70;4.63;;;21.80;84.80;;;;;;7413065;19;20019;-84
2023/09/28 08:55:46;;;;;;;27.70;5.13;;;21.70;85.00;;;;;;7369176;19;20010;-82
2023/09/28 08:58:16;;;;;;;32.05;4.72;;;21.70;84.80;;;;;;7407707;19;20039;-80
2023/09/28 09:00:45;;;;;;;48.78;5.47;;;21.80;84.50;;;;;;7386737;19;21412;-80
2023/09/28 09:03:16;;;;;;;34.95;4.60;;;21.90;84.70;;;;;;7406942;19;20007;-80
2023/09/28 09:06:20;;;;;;;24.98;4.90;;;21.90;84.40;;;;;;7387915;19;20007;-83
2023/09/28 09:12:21;;;;;;;35.50;4.85;;;22.00;84.70;;;;;;7410897;19;19987;-83
2023/09/28 09:24:59;;;;;;;21.63;3.47;;;21.90;83.20;;;;;;7385033;19;20010;-81
2023/09/28 09:27:36;;;;;;;18.70;3.35;;;22.00;82.70;;;;;;7404491;19;20039;-83
2023/09/28 09:33:04;;;;;;;77.57;30.35;;;22.10;82.70;;;;;;7382793;19;20404;-78
2023/09/28 09:35:33;;;;;;;67.15;27.83;;;22.10;82.40;;;;;;7386228;19;20039;-78
2023/09/28 09:38:02;;;;;;;32.25;8.43;;;22.10;82.70;;;;;;7381643;19;20087;-78
2023/09/28 09:40:35;;;;;;;35.60;10.32;;;22.10;83.30;;;;;;7379566;19;20007;-78
2023/09/28 09:43:10;;;;;;;23.42;4.78;;;22.00;82.80;;;;;;7381126;19;20010;-77
2023/09/28 09:45:39;;;;;;;20.92;3.42;;;22.00;82.90;;;;;;7382492;19;20010;-80
2023/09/28 09:48:09;;;;;;;15.80;3.50;;;22.10;83.00;;;;;;7402273;19;20021;-80
2023/09/28 09:50:42;;;;;;;16.77;3.65;;;21.90;83.70;;;;;;7384944;19;20011;-81
2023/09/28 09:56:58;;;;;;;23.85;3.95;;;21.90;82.50;;;;;;7422820;19;19982;-85
2023/09/28 12:39:21;;;;;;;17.08;5.88;;;23.60;72.80;;;;;;7417017;19;19974;-78
2023/09/28 12:44:35;;;;;;;20.42;3.80;;;23.80;70.50;;;;;;7401016;19;20010;-77
2023/09/28 12:47:05;;;;;;;19.65;4.40;;;23.90;71.20;;;;;;7407116;19;20058;-78
2023/09/28 12:49:36;;;;;;;21.60;4.03;;;24.00;70.50;;;;;;7390782;19;20368;-77
2023/09/28 12:52:07;;;;;;;29.38;4.13;;;24.10;69.10;;;;;;7383266;19;20003;-77
2023/09/28 12:54:37;;;;;;;20.23;3.15;;;24.10;69.30;;;;;;7382685;19;20007;-80
2023/09/28 12:57:07;;;;;;;28.70;4.10;;;24.10;68.80;;;;;;7410547;19;20234;-79
2023/09/28 12:59:36;;;;;;;17.70;4.20;;;24.20;69.10;;;;;;7387309;19;20014;-80
2023/09/28 13:02:22;;;;;;;22.55;3.92;;;24.30;68.90;;;;;;7388424;19;20006;-83
2023/09/28 13:05:31;;;;;;;24.05;3.65;;;24.40;68.00;;;;;;7367212;19;20007;-84
2023/09/28 13:08:28;;;;;;;17.88;3.63;;;24.40;67.60;;;;;;7410036;19;20010;-83
2023/09/28 13:14:33;;;;;;;16.83;3.42;;;24.50;68.50;;;;;;7363304;19;20070;-81
2023/09/28 13:28:33;;;;;;;18.77;3.15;;;24.80;64.70;;;;;;7303523;19;20007;-79
2023/09/28 13:31:05;;;;;;;10.45;3.15;;;24.70;64.10;;;;;;7388164;19;20011;-83
2023/09/28 13:34:16;;;;;;;218.10;119.72;;;24.80;64.90;;;;;;7387754;19;20007;-86
2023/09/28 13:40:16;;;;;;;15.63;3.72;;;25.10;65.00;;;;;;7409262;19;19971;-81
2023/09/28 13:42:51;;;;;;;15.10;3.47;;;25.30;61.80;;;;;;7386442;19;20019;-82
2023/09/28 13:52:03;;;;;;;14.80;3.40;;;25.40;62.40;;;;;;7386316;19;20022;-83
2023/09/28 13:57:57;;;;;;;14.57;3.67;;;25.40;61.50;;;;;;7284343;19;2004665;-81
2023/09/28 14:03:27;;;;;;;17.73;3.42;;;25.30;62.60;;;;;;7407436;19;20027;-83
2023/09/28 14:05:59;;;;;;;11.25;3.08;;;25.40;61.90;;;;;;7387660;19;20178;-81
2023/09/28 14:18:17;;;;;;;15.50;3.45;;;25.50;61.60;;;;;;7402307;19;20036;-79
2023/09/28 14:21:22;;;;;;;12.35;3.00;;;25.50;61.10;;;;;;7384790;19;20032;-86
2023/09/28 14:26:54;;;;;;;13.80;3.00;;;25.70;60.90;;;;;;7381441;19;20740;-84
2023/09/28 14:38:26;;;;;;;16.63;3.53;;;26.00;60.50;;;;;;7408894;19;20079;-80
2023/09/28 14:40:55;;;;;;;9.27;2.78;;;26.00;61.00;;;;;;7386457;19;20037;-82
2023/09/28 14:43:24;;;;;;;9.68;3.28;;;26.00;61.20;;;;;;7384366;19;20030;-82
2023/09/28 14:45:51;;;;;;;19.48;3.20;;;25.90;61.00;;;;;;7400896;19;20009;-79
2023/09/28 14:48:35;;;;;;;12.43;3.38;;;25.90;59.60;;;;;;7422883;19;20011;-81
2023/09/28 14:51:03;;;;;;;20.23;3.55;;;25.90;60.10;;;;;;7403808;19;20006;-78
2023/09/28 14:53:35;;;;;;;18.85;3.08;;;25.80;60.00;;;;;;7390572;19;20011;-79
2023/09/28 14:56:04;;;;;;;13.18;3.15;;;25.80;59.90;;;;;;7387896;19;20016;-78
2023/09/28 14:58:32;;;;;;;11.38;3.33;;;25.70;60.00;;;;;;7385924;19;20030;-77
2023/09/28 15:01:06;;;;;;;14.15;3.45;;;25.70;60.00;;;;;;7386955;19;20302;-78
2023/09/28 15:03:34;;;;;;;16.95;3.60;;;25.60;60.30;;;;;;7385081;19;20006;-78
2023/09/28 15:06:03;;;;;;;15.93;3.50;;;25.60;60.40;;;;;;7407696;19;20011;-78
2023/09/28 15:08:35;;;;;;;19.35;4.00;;;25.60;60.10;;;;;;7385286;19;20030;-78
2023/09/28 15:11:03;;;;;;;17.27;3.53;;;25.50;60.50;;;;;;7384798;19;20010;-79
2023/09/28 15:13:32;;;;;;;16.45;3.20;;;25.50;61.30;;;;;;7383997;19;20213;-78
2023/09/28 15:16:01;;;;;;;13.90;3.78;;;25.50;61.70;;;;;;7384254;19;20007;-82
2023/09/28 15:18:31;;;;;;;18.40;3.47;;;25.40;61.90;;;;;;7385822;19;20015;-84
2023/09/28 15:21:11;;;;;;;14.68;3.08;;;25.40;61.70;;;;;;7405862;19;20366;-83
2023/09/28 15:26:28;;;;;;;17.15;3.63;;;25.50;61.30;;;;;;7383366;19;20026;-82
2023/09/28 15:28:57;;;;;;;17.90;3.65;;;25.60;60.40;;;;;;7391918;19;20054;-79
2023/09/28 15:31:26;;;;;;;12.18;3.28;;;25.70;61.10;;;;;;7381899;19;20029;-78
2023/09/28 15:33:55;;;;;;;16.52;3.00;;;25.70;61.10;;;;;;7381902;19;20014;-78
2023/09/28 15:36:24;;;;;;;23.98;3.85;;;25.70;60.60;;;;;;7402820;19;20032;-77
2023/09/28 15:38:55;;;;;;;13.25;3.58;;;25.70;60.00;;;;;;7378805;19;20007;-77
2023/09/28 15:41:36;;;;;;;10.65;3.15;;;25.60;60.50;;;;;;7379348;19;20011;-77
2023/09/28 15:44:06;;;;;;;13.05;3.38;;;25.50;61.30;;;;;;7381902;19;20082;-78
2023/09/28 15:46:35;;;;;;;20.08;3.40;;;25.50;62.20;;;;;;7384802;19;20007;-82
2023/09/28 15:49:14;;;;;;;19.27;3.55;;;25.50;62.30;;;;;;7383395;19;20007;-83
2023/09/28 15:51:46;;;;;;;15.77;3.45;;;25.50;62.10;;;;;;7384261;19;20007;-84
2023/09/28 15:54:54;;;;;;;14.13;3.17;;;25.50;62.10;;;;;;7405792;19;20006;-82
2023/09/28 15:57:25;;;;;;;15.32;3.15;;;25.50;61.90;;;;;;7286910;19;2004504;-81
2023/09/28 15:59:54;;;;;;;605.50;393.52;;;25.50;61.70;;;;;;7408239;19;20011;-78
2023/09/28 16:02:27;;;;;;;30.15;8.98;;;25.50;62.40;;;;;;7387051;19;20023;-80
2023/09/28 16:04:56;;;;;;;18.10;5.50;;;25.40;62.50;;;;;;7388417;19;20581;-82
2023/09/28 16:07:37;;;;;;;19.20;3.55;;;25.40;62.80;;;;;;7387778;19;20047;-80
2023/09/28 16:10:07;;;;;;;23.50;4.25;;;25.30;63.30;;;;;;7385703;19;20430;-83
2023/09/28 16:12:38;;;;;;;17.73;3.70;;;25.30;63.90;;;;;;7385520;19;20027;-80
2023/09/28 16:15:08;;;;;;;29.25;3.72;;;25.20;64.40;;;;;;7407146;19;20039;-81
2023/09/28 16:17:58;;;;;;;18.77;3.83;;;25.20;65.10;;;;;;7393046;19;20029;-89
2023/09/28 16:20:35;;;;;;;16.63;3.50;;;25.10;65.70;;;;;;7391452;19;20006;-84
2023/09/28 16:23:05;;;;;;;12.15;3.28;;;25.10;66.00;;;;;;7386388;19;20011;-80
2023/09/28 16:25:41;;;;;;;19.02;3.70;;;25.10;66.40;;;;;;7387465;19;20020;-85
2023/09/28 16:28:12;;;;;;;19.85;3.60;;;25.00;66.50;;;;;;7385901;19;20011;-79
2023/09/28 16:31:07;;;;;;;16.75;3.20;;;25.00;67.30;;;;;;7385314;19;20059;-82
2023/09/28 16:33:36;;;;;;;19.42;3.90;;;25.00;67.00;;;;;;7384578;19;20025;-79
2023/09/28 16:36:05;;;;;;;18.13;3.60;;;25.00;67.80;;;;;;7411033;19;20017;-79
2023/09/28 16:38:34;;;;;;;16.65;3.95;;;24.90;68.70;;;;;;7390453;19;20015;-80
2023/09/28 16:41:03;;;;;;;15.82;3.75;;;24.90;69.70;;;;;;7388248;19;20007;-78
2023/09/28 16:43:35;;;;;;;20.60;3.83;;;24.80;71.00;;;;;;7387812;19;20013;-79
2023/09/28 16:46:04;;;;;;;24.55;4.30;;;24.80;71.60;;;;;;7392633;19;20010;-79
2023/09/28 16:48:35;;;;;;;13.40;3.20;;;24.80;72.50;;;;;;7394836;19;20010;-81
2023/09/28 16:51:03;;;;;;;18.77;3.60;;;24.70;73.30;;;;;;7428062;19;20007;-80
2023/09/28 16:53:32;;;;;;;18.00;3.70;;;24.70;74.10;;;;;;7401212;19;20006;-77
2023/09/28 16:56:01;;;;;;;18.63;3.50;;;24.60;74.80;;;;;;7408218;19;20014;-80
2023/09/28 16:58:30;;;;;;;14.18;3.35;;;24.60;75.10;;;;;;7391128;19;20037;-78
2023/09/28 17:01:01;;;;;;;14.10;3.45;;;24.50;75.20;;;;;;7389207;19;20006;-81
2023/09/28 17:03:32;;;;;;;14.68;3.80;;;24.40;75.30;;;;;;7390926;19;20015;-79
2023/09/28 17:06:01;;;;;;;14.45;3.63;;;24.40;75.50;;;;;;7409403;19;20010;-78
2023/09/28 17:08:30;;;;;;;18.50;4.20;;;24.30;76.00;;;;;;7386872;19;20011;-79
2023/09/28 17:10:58;;;;;;;20.55;3.67;;;24.30;76.70;;;;;;7388713;19;20003;-79
2023/09/28 17:13:27;;;;;;;18.27;3.10;;;24.30;76.90;;;;;;7390771;19;20011;-79
2023/09/28 17:15:56;;;;;;;12.48;3.10;;;24.20;77.50;;;;;;7395398;19;20003;-81
2023/09/28 17:18:28;;;;;;;16.15;3.47;;;24.10;77.80;;;;;;7410554;19;20010;-79
2023/09/28 17:20:56;;;;;;;15.57;3.67;;;24.10;78.10;;;;;;7407666;19;20013;-76
2023/09/28 17:23:25;;;;;;;18.05;3.78;;;24.10;78.60;;;;;;7382199;19;20047;-80
2023/09/28 17:26:00;;;;;;;28.33;3.63;;;24.00;78.40;;;;;;7386026;19;20235;-82
2023/09/28 17:28:29;;;;;;;370.42;226.23;;;24.00;78.70;;;;;;7390069;19;20003;-80
2023/09/28 17:31:43;;;;;;;36.25;14.07;;;23.90;78.90;;;;;;7388792;19;20006;-86
2023/09/28 17:34:45;;;;;;;17.30;4.80;;;23.90;79.40;;;;;;7392457;19;20016;-83
2023/09/28 17:37:51;;;;;;;;;;;;;;;;;;;;;
2023/09/28 18:15:39;;;;;;;;;;;;;;;;;;;;;
2023/09/28 21:00:54;;;;;;;15.85;3.47;;;22.70;89.20;;;;;;7385984;19;19999;-79
2023/09/28 21:03:26;;;;;;;23.30;4.10;;;22.70;89.20;;;;;;7409625;19;20007;-80
2023/09/28 21:05:57;;;;;;;15.57;4.13;;;22.70;89.30;;;;;;7383812;19;20007;-80
2023/09/28 21:08:30;;;;;;;20.83;4.95;;;22.80;89.50;;;;;;7383851;19;20018;-82
2023/09/28 21:11:41;;;;;;;17.30;4.43;;;22.80;89.40;;;;;;7385418;19;20006;-84
2023/09/28 21:17:48;;;;;;;16.45;4.20;;;22.80;89.50;;;;;;7410651;19;19975;-82
2023/09/28 21:33:10;;;;;;;14.93;3.55;;;22.70;90.10;;;;;;7351997;19;20058;-81
2023/09/28 21:36:17;;;;;;;14.93;3.88;;;22.70;90.20;;;;;;7384344;19;20003;-81
2023/09/28 21:46:10;;;;;;;14.80;4.13;;;22.60;90.40;;;;;;7405989;19;19979;-85
2023/09/28 21:51:59;;;;;;;14.93;3.65;;;22.50;91.00;;;;;;7385015;19;20071;-80
2023/09/28 21:54:28;;;;;;;10.90;3.53;;;22.50;90.70;;;;;;7380570;19;20006;-77